sensor_id;sensor_type;location;lat;lon;timestamp;P1;durP1;ratioP1;P2;durP2;ratioP2
48623;SDS011;34422;45.802;16.114;2022-10-04T00:01:28;16.73;;;5.67;;
48623;SDS011;34422;45.802;16.114;2022-10-04T00:04:02;11.55;;;5.65;;
48623;SDS011;34422;45.802;16.114;2022-10-04T00:06:34;12.07;;;5.75;;
48623;SDS011;34422;45.802;16.114;2022-10-04T00:09:16;19.30;;;7.25;;
48623;SDS011;34422;45.802;16.114;2022-10-04T00:11:49;13.65;;;7.50;;
48623;SDS011;34422;45.802;16.114;2022-10-04T00:14:30;12.75;;;7.22;;
48623;SDS011;34422;45.802;16.114;2022-10-04T00:17:10;18.02;;;7.70;;
48623;SDS011;34422;45.802;16.114;2022-10-04T00:19:42;13.40;;;6.80;;
48623;SDS011;34422;45.802;16.114;2022-10-04T00:22:14;12.00;;;6.15;;
48623;SDS011;34422;45.802;16.114;2022-10-04T00:25:28;12.50;;;6.07;;
48623;SDS011;34422;45.802;16.114;2022-10-04T00:27:33;12.00;;;6.40;;
48623;SDS011;34422;45.802;16.114;2022-10-04T00:33:02;11.45;;;5.85;;
48623;SDS011;34422;45.802;16.114;2022-10-04T00:40:27;10.07;;;5.57;;
48623;SDS011;34422;45.802;16.114;2022-10-04T00:43:06;11.18;;;5.22;;
48623;SDS011;34422;45.802;16.114;2022-10-04T00:45:41;10.27;;;5.03;;
48623;SDS011;34422;45.802;16.114;2022-10-04T00:54:10;12.43;;;5.38;;
48623;SDS011;34422;45.802;16.114;2022-10-04T00:56:46;11.10;;;5.30;;
48623;SDS011;34422;45.802;16.114;2022-10-04T01:01:49;9.07;;;5.05;;
48623;SDS011;34422;45.802;16.114;2022-10-04T01:07:38;12.43;;;4.85;;
48623;SDS011;34422;45.802;16.114;2022-10-04T01:12:55;12.23;;;5.20;;
48623;SDS011;34422;45.802;16.114;2022-10-04T01:20:53;11.55;;;4.25;;
48623;SDS011;34422;45.802;16.114;2022-10-04T01:26:04;9.48;;;4.47;;
48623;SDS011;34422;45.802;16.114;2022-10-04T01:28:32;6.78;;;4.13;;
48623;SDS011;34422;45.802;16.114;2022-10-04T01:31:01;8.70;;;4.30;;
48623;SDS011;34422;45.802;16.114;2022-10-04T01:33:28;9.50;;;4.55;;
48623;SDS011;34422;45.802;16.114;2022-10-04T01:35:55;9.23;;;4.18;;
48623;SDS011;34422;45.802;16.114;2022-10-04T01:38:22;8.75;;;3.85;;
48623;SDS011;34422;45.802;16.114;2022-10-04T01:40:50;8.65;;;3.85;;
48623;SDS011;34422;45.802;16.114;2022-10-04T01:43:23;6.35;;;3.25;;
48623;SDS011;34422;45.802;16.114;2022-10-04T01:45:57;6.00;;;3.13;;
48623;SDS011;34422;45.802;16.114;2022-10-04T01:48:31;10.20;;;3.85;;
48623;SDS011;34422;45.802;16.114;2022-10-04T01:51:07;10.55;;;3.50;;
48623;SDS011;34422;45.802;16.114;2022-10-04T01:53:43;8.35;;;3.75;;
48623;SDS011;34422;45.802;16.114;2022-10-04T01:56:20;7.05;;;3.63;;
48623;SDS011;34422;45.802;16.114;2022-10-04T01:58:57;13.15;;;4.07;;
48623;SDS011;34422;45.802;16.114;2022-10-04T02:04:18;10.25;;;3.53;;
48623;SDS011;34422;45.802;16.114;2022-10-04T02:06:48;7.93;;;3.30;;
48623;SDS011;34422;45.802;16.114;2022-10-04T02:09:21;7.28;;;3.72;;
48623;SDS011;34422;45.802;16.114;2022-10-04T02:14:21;6.28;;;3.13;;
48623;SDS011;34422;45.802;16.114;2022-10-04T02:16:51;8.15;;;2.97;;
48623;SDS011;34422;45.802;16.114;2022-10-04T02:19:23;7.35;;;2.78;;
48623;SDS011;34422;45.802;16.114;2022-10-04T02:21:56;5.57;;;2.78;;
48623;SDS011;34422;45.802;16.114;2022-10-04T02:24:26;6.30;;;3.42;;
48623;SDS011;34422;45.802;16.114;2022-10-04T02:26:53;7.25;;;2.83;;
48623;SDS011;34422;45.802;16.114;2022-10-04T02:29:20;9.23;;;3.80;;
48623;SDS011;34422;45.802;16.114;2022-10-04T02:31:47;21.30;;;4.40;;
48623;SDS011;34422;45.802;16.114;2022-10-04T02:34:35;7.85;;;3.97;;
48623;SDS011;34422;45.802;16.114;2022-10-04T02:37:04;10.40;;;3.97;;
48623;SDS011;34422;45.802;16.114;2022-10-04T02:39:36;6.38;;;3.08;;
48623;SDS011;34422;45.802;16.114;2022-10-04T02:44:59;6.03;;;3.38;;
48623;SDS011;34422;45.802;16.114;2022-10-04T02:47:36;7.03;;;3.20;;
48623;SDS011;34422;45.802;16.114;2022-10-04T02:53:11;7.00;;;3.50;;
48623;SDS011;34422;45.802;16.114;2022-10-04T02:55:41;14.82;;;3.80;;
48623;SDS011;34422;45.802;16.114;2022-10-04T02:58:09;11.02;;;3.42;;
48623;SDS011;34422;45.802;16.114;2022-10-04T03:01:04;8.70;;;3.30;;
48623;SDS011;34422;45.802;16.114;2022-10-04T03:03:31;6.53;;;3.28;;
48623;SDS011;34422;45.802;16.114;2022-10-04T03:06:03;6.93;;;3.40;;
48623;SDS011;34422;45.802;16.114;2022-10-04T03:11:07;7.88;;;3.55;;
48623;SDS011;34422;45.802;16.114;2022-10-04T03:13:35;7.00;;;3.45;;
48623;SDS011;34422;45.802;16.114;2022-10-04T03:16:04;6.70;;;3.40;;
48623;SDS011;34422;45.802;16.114;2022-10-04T03:18:32;5.68;;;3.30;;
48623;SDS011;34422;45.802;16.114;2022-10-04T03:21:01;7.15;;;3.35;;
48623;SDS011;34422;45.802;16.114;2022-10-04T03:23:33;8.65;;;3.08;;
48623;SDS011;34422;45.802;16.114;2022-10-04T03:26:09;7.75;;;3.00;;
48623;SDS011;34422;45.802;16.114;2022-10-04T03:28:57;13.45;;;3.53;;
48623;SDS011;34422;45.802;16.114;2022-10-04T03:31:25;8.05;;;3.20;;
48623;SDS011;34422;45.802;16.114;2022-10-04T03:33:54;13.43;;;3.17;;
48623;SDS011;34422;45.802;16.114;2022-10-04T03:36:23;6.75;;;3.05;;
48623;SDS011;34422;45.802;16.114;2022-10-04T03:38:52;9.45;;;3.08;;
48623;SDS011;34422;45.802;16.114;2022-10-04T03:41:22;6.03;;;2.65;;
48623;SDS011;34422;45.802;16.114;2022-10-04T03:43:51;9.82;;;3.40;;
48623;SDS011;34422;45.802;16.114;2022-10-04T03:46:20;6.60;;;3.38;;
48623;SDS011;34422;45.802;16.114;2022-10-04T03:48:50;7.20;;;3.50;;
48623;SDS011;34422;45.802;16.114;2022-10-04T03:51:24;7.33;;;3.17;;
48623;SDS011;34422;45.802;16.114;2022-10-04T03:53:53;5.05;;;3.20;;
48623;SDS011;34422;45.802;16.114;2022-10-04T03:56:27;6.13;;;2.87;;
48623;SDS011;34422;45.802;16.114;2022-10-04T03:58:56;5.93;;;2.85;;
48623;SDS011;34422;45.802;16.114;2022-10-04T04:04:23;16.13;;;3.90;;
48623;SDS011;34422;45.802;16.114;2022-10-04T04:09:55;8.00;;;3.00;;
48623;SDS011;34422;45.802;16.114;2022-10-04T04:15:09;7.47;;;3.08;;
48623;SDS011;34422;45.802;16.114;2022-10-04T04:17:39;6.05;;;2.80;;
48623;SDS011;34422;45.802;16.114;2022-10-04T04:25:43;13.35;;;4.90;;
48623;SDS011;34422;45.802;16.114;2022-10-04T04:31:02;11.52;;;5.53;;
48623;SDS011;34422;45.802;16.114;2022-10-04T04:36:16;9.00;;;5.07;;
48623;SDS011;34422;45.802;16.114;2022-10-04T04:38:44;11.43;;;5.15;;
48623;SDS011;34422;45.802;16.114;2022-10-04T04:41:30;12.10;;;5.32;;
48623;SDS011;34422;45.802;16.114;2022-10-04T04:44:01;11.32;;;5.57;;
48623;SDS011;34422;45.802;16.114;2022-10-04T04:46:29;30.80;;;16.38;;
48623;SDS011;34422;45.802;16.114;2022-10-04T04:48:59;38.83;;;24.92;;
48623;SDS011;34422;45.802;16.114;2022-10-04T04:51:30;101.45;;;67.25;;
48623;SDS011;34422;45.802;16.114;2022-10-04T04:53:59;181.05;;;135.55;;
48623;SDS011;34422;45.802;16.114;2022-10-04T04:56:29;125.30;;;95.85;;
48623;SDS011;34422;45.802;16.114;2022-10-04T04:58:57;53.88;;;26.35;;
48623;SDS011;34422;45.802;16.114;2022-10-04T05:01:28;16.92;;;9.15;;
48623;SDS011;34422;45.802;16.114;2022-10-04T05:04:00;10.20;;;6.20;;
48623;SDS011;34422;45.802;16.114;2022-10-04T05:06:30;14.25;;;6.22;;
48623;SDS011;34422;45.802;16.114;2022-10-04T05:08:59;12.25;;;5.30;;
48623;SDS011;34422;45.802;16.114;2022-10-04T05:11:28;14.27;;;5.95;;
48623;SDS011;34422;45.802;16.114;2022-10-04T05:14:00;11.57;;;5.32;;
48623;SDS011;34422;45.802;16.114;2022-10-04T05:16:39;11.63;;;5.47;;
48623;SDS011;34422;45.802;16.114;2022-10-04T05:19:13;11.77;;;6.47;;
48623;SDS011;34422;45.802;16.114;2022-10-04T05:21:44;10.43;;;6.05;;
48623;SDS011;34422;45.802;16.114;2022-10-04T05:24:20;11.95;;;5.80;;
48623;SDS011;34422;45.802;16.114;2022-10-04T05:26:53;13.70;;;6.10;;
48623;SDS011;34422;45.802;16.114;2022-10-04T05:34:26;22.92;;;10.05;;
48623;SDS011;34422;45.802;16.114;2022-10-04T05:39:26;15.05;;;8.30;;
48623;SDS011;34422;45.802;16.114;2022-10-04T05:44:49;12.88;;;7.95;;
48623;SDS011;34422;45.802;16.114;2022-10-04T05:47:19;12.30;;;6.93;;
48623;SDS011;34422;45.802;16.114;2022-10-04T05:49:54;10.63;;;7.15;;
48623;SDS011;34422;45.802;16.114;2022-10-04T05:52:27;73.13;;;42.58;;
48623;SDS011;34422;45.802;16.114;2022-10-04T05:57:45;17.60;;;9.85;;
48623;SDS011;34422;45.802;16.114;2022-10-04T06:00:38;17.85;;;11.07;;
48623;SDS011;34422;45.802;16.114;2022-10-04T06:03:22;21.10;;;10.77;;
48623;SDS011;34422;45.802;16.114;2022-10-04T06:06:00;20.08;;;9.68;;
48623;SDS011;34422;45.802;16.114;2022-10-04T06:11:17;14.25;;;6.50;;
48623;SDS011;34422;45.802;16.114;2022-10-04T06:14:12;11.63;;;7.45;;
48623;SDS011;34422;45.802;16.114;2022-10-04T06:22:14;14.85;;;7.10;;
48623;SDS011;34422;45.802;16.114;2022-10-04T06:24:43;10.60;;;6.53;;
48623;SDS011;34422;45.802;16.114;2022-10-04T06:27:33;16.58;;;7.47;;
48623;SDS011;34422;45.802;16.114;2022-10-04T06:30:15;12.70;;;6.20;;
48623;SDS011;34422;45.802;16.114;2022-10-04T06:47:40;11.35;;;6.43;;
48623;SDS011;34422;45.802;16.114;2022-10-04T06:56:06;16.63;;;8.13;;
48623;SDS011;34422;45.802;16.114;2022-10-04T06:58:51;11.98;;;7.18;;
48623;SDS011;34422;45.802;16.114;2022-10-04T07:01:31;15.05;;;8.00;;
48623;SDS011;34422;45.802;16.114;2022-10-04T07:21:16;16.02;;;8.85;;
48623;SDS011;34422;45.802;16.114;2022-10-04T07:23:46;14.13;;;8.32;;
48623;SDS011;34422;45.802;16.114;2022-10-04T07:28:51;20.08;;;9.27;;
48623;SDS011;34422;45.802;16.114;2022-10-04T07:31:42;22.67;;;9.10;;
48623;SDS011;34422;45.802;16.114;2022-10-04T07:34:26;19.70;;;9.73;;
48623;SDS011;34422;45.802;16.114;2022-10-04T07:36:57;14.77;;;7.78;;
48623;SDS011;34422;45.802;16.114;2022-10-04T07:42:06;16.83;;;7.22;;
48623;SDS011;34422;45.802;16.114;2022-10-04T07:44:46;19.60;;;7.05;;
48623;SDS011;34422;45.802;16.114;2022-10-04T07:47:29;23.80;;;7.60;;
48623;SDS011;34422;45.802;16.114;2022-10-04T07:49:57;17.95;;;7.43;;
48623;SDS011;34422;45.802;16.114;2022-10-04T07:52:37;20.15;;;7.53;;
48623;SDS011;34422;45.802;16.114;2022-10-04T07:58:05;11.30;;;6.95;;
48623;SDS011;34422;45.802;16.114;2022-10-04T08:01:00;19.45;;;7.80;;
48623;SDS011;34422;45.802;16.114;2022-10-04T08:03:58;19.38;;;8.40;;
48623;SDS011;34422;45.802;16.114;2022-10-04T08:17:48;12.93;;;6.07;;
48623;SDS011;34422;45.802;16.114;2022-10-04T08:31:56;7.07;;;3.05;;
48623;SDS011;34422;45.802;16.114;2022-10-04T08:52:24;8.85;;;2.20;;
48623;SDS011;34422;45.802;16.114;2022-10-04T08:55:15;5.97;;;1.60;;
48623;SDS011;34422;45.802;16.114;2022-10-04T08:58:05;8.95;;;1.98;;
48623;SDS011;34422;45.802;16.114;2022-10-04T09:00:55;8.50;;;1.98;;
48623;SDS011;34422;45.802;16.114;2022-10-04T09:09:25;4.53;;;1.60;;
48623;SDS011;34422;45.802;16.114;2022-10-04T09:12:12;7.28;;;2.03;;
48623;SDS011;34422;45.802;16.114;2022-10-04T09:17:22;4.85;;;1.60;;
48623;SDS011;34422;45.802;16.114;2022-10-04T09:31:58;6.78;;;2.05;;
48623;SDS011;34422;45.802;16.114;2022-10-04T09:43:28;5.80;;;1.80;;
48623;SDS011;34422;45.802;16.114;2022-10-04T10:07:59;8.18;;;1.67;;
48623;SDS011;34422;45.802;16.114;2022-10-04T10:10:39;11.68;;;5.65;;
48623;SDS011;34422;45.802;16.114;2022-10-04T10:13:55;4.43;;;1.63;;
48623;SDS011;34422;45.802;16.114;2022-10-04T10:21:54;7.30;;;1.75;;
48623;SDS011;34422;45.802;16.114;2022-10-04T10:33:34;5.78;;;1.35;;
48623;SDS011;34422;45.802;16.114;2022-10-04T10:36:15;5.55;;;1.40;;
48623;SDS011;34422;45.802;16.114;2022-10-04T10:50:33;3.90;;;1.45;;
48623;SDS011;34422;45.802;16.114;2022-10-04T10:56:33;5.93;;;1.58;;
48623;SDS011;34422;45.802;16.114;2022-10-04T11:04:47;9.45;;;1.63;;
48623;SDS011;34422;45.802;16.114;2022-10-04T11:24:39;6.25;;;1.33;;
48623;SDS011;34422;45.802;16.114;2022-10-04T11:27:22;7.68;;;1.20;;
48623;SDS011;34422;45.802;16.114;2022-10-04T11:36:03;5.13;;;1.55;;
48623;SDS011;34422;45.802;16.114;2022-10-04T11:43:59;5.05;;;1.35;;
48623;SDS011;34422;45.802;16.114;2022-10-04T11:47:53;4.13;;;1.42;;
48623;SDS011;34422;45.802;16.114;2022-10-04T12:20:40;4.65;;;1.58;;
48623;SDS011;34422;45.802;16.114;2022-10-04T12:31:40;5.55;;;1.55;;
48623;SDS011;34422;45.802;16.114;2022-10-04T12:48:14;4.10;;;1.48;;
48623;SDS011;34422;45.802;16.114;2022-10-04T12:53:35;4.20;;;1.48;;
48623;SDS011;34422;45.802;16.114;2022-10-04T12:56:13;4.78;;;1.30;;
48623;SDS011;34422;45.802;16.114;2022-10-04T12:59:05;4.72;;;1.58;;
48623;SDS011;34422;45.802;16.114;2022-10-04T13:02:31;5.03;;;1.33;;
48623;SDS011;34422;45.802;16.114;2022-10-04T13:10:31;7.68;;;1.80;;
48623;SDS011;34422;45.802;16.114;2022-10-04T13:13:18;4.07;;;1.13;;
48623;SDS011;34422;45.802;16.114;2022-10-04T13:24:17;3.85;;;1.30;;
48623;SDS011;34422;45.802;16.114;2022-10-04T13:27:24;7.00;;;1.80;;
48623;SDS011;34422;45.802;16.114;2022-10-04T13:32:23;3.15;;;1.10;;
48623;SDS011;34422;45.802;16.114;2022-10-04T13:35:15;3.63;;;1.30;;
48623;SDS011;34422;45.802;16.114;2022-10-04T13:37:59;5.20;;;1.45;;
48623;SDS011;34422;45.802;16.114;2022-10-04T13:40:29;3.55;;;1.40;;
48623;SDS011;34422;45.802;16.114;2022-10-04T13:54:26;5.07;;;1.70;;
48623;SDS011;34422;45.802;16.114;2022-10-04T14:11:05;4.22;;;1.40;;
48623;SDS011;34422;45.802;16.114;2022-10-04T14:30:20;4.90;;;1.65;;
48623;SDS011;34422;45.802;16.114;2022-10-04T14:35:44;5.68;;;1.30;;
48623;SDS011;34422;45.802;16.114;2022-10-04T14:38:24;4.35;;;1.70;;
48623;SDS011;34422;45.802;16.114;2022-10-04T14:46:39;5.70;;;1.33;;
48623;SDS011;34422;45.802;16.114;2022-10-04T14:57:57;9.00;;;1.60;;
48623;SDS011;34422;45.802;16.114;2022-10-04T15:00:55;4.57;;;1.08;;
48623;SDS011;34422;45.802;16.114;2022-10-04T15:11:54;4.15;;;1.45;;
48623;SDS011;34422;45.802;16.114;2022-10-04T15:14:26;6.45;;;1.85;;
48623;SDS011;34422;45.802;16.114;2022-10-04T15:17:06;4.32;;;1.73;;
48623;SDS011;34422;45.802;16.114;2022-10-04T15:19:48;7.20;;;1.85;;
48623;SDS011;34422;45.802;16.114;2022-10-04T15:22:31;4.93;;;1.67;;
48623;SDS011;34422;45.802;16.114;2022-10-04T15:31:26;6.53;;;2.28;;
48623;SDS011;34422;45.802;16.114;2022-10-04T15:34:09;4.68;;;1.88;;
48623;SDS011;34422;45.802;16.114;2022-10-04T15:37:07;4.53;;;1.70;;
48623;SDS011;34422;45.802;16.114;2022-10-04T15:42:32;14.82;;;8.20;;
48623;SDS011;34422;45.802;16.114;2022-10-04T15:59:13;5.80;;;2.15;;
48623;SDS011;34422;45.802;16.114;2022-10-04T16:02:18;5.30;;;2.10;;
48623;SDS011;34422;45.802;16.114;2022-10-04T16:20:11;6.97;;;3.50;;
48623;SDS011;34422;45.802;16.114;2022-10-04T16:22:33;7.95;;;3.35;;
48623;SDS011;34422;45.802;16.114;2022-10-04T16:33:01;12.20;;;5.63;;
48623;SDS011;34422;45.802;16.114;2022-10-04T16:35:32;8.43;;;3.75;;
48623;SDS011;34422;45.802;16.114;2022-10-04T16:38:25;13.27;;;7.22;;
48623;SDS011;34422;45.802;16.114;2022-10-04T16:41:05;11.00;;;8.02;;
48623;SDS011;34422;45.802;16.114;2022-10-04T16:43:46;9.00;;;6.75;;
48623;SDS011;34422;45.802;16.114;2022-10-04T16:46:34;11.35;;;6.32;;
48623;SDS011;34422;45.802;16.114;2022-10-04T16:49:23;21.35;;;12.55;;
48623;SDS011;34422;45.802;16.114;2022-10-04T16:55:48;64.75;;;31.77;;
48623;SDS011;34422;45.802;16.114;2022-10-04T17:06:32;36.40;;;20.25;;
48623;SDS011;34422;45.802;16.114;2022-10-04T17:12:12;15.25;;;7.10;;
48623;SDS011;34422;45.802;16.114;2022-10-04T17:20:36;13.98;;;4.97;;
48623;SDS011;34422;45.802;16.114;2022-10-04T17:36:36;16.90;;;9.43;;
48623;SDS011;34422;45.802;16.114;2022-10-04T17:39:20;23.00;;;11.30;;
48623;SDS011;34422;45.802;16.114;2022-10-04T17:45:12;21.80;;;10.63;;
48623;SDS011;34422;45.802;16.114;2022-10-04T17:53:40;25.33;;;12.77;;
48623;SDS011;34422;45.802;16.114;2022-10-04T17:56:36;24.13;;;13.50;;
48623;SDS011;34422;45.802;16.114;2022-10-04T17:59:12;28.58;;;14.52;;
48623;SDS011;34422;45.802;16.114;2022-10-04T18:01:45;20.50;;;12.65;;
48623;SDS011;34422;45.802;16.114;2022-10-04T18:04:18;22.20;;;13.48;;
48623;SDS011;34422;45.802;16.114;2022-10-04T18:07:13;25.40;;;13.60;;
48623;SDS011;34422;45.802;16.114;2022-10-04T18:09:45;26.38;;;14.45;;
48623;SDS011;34422;45.802;16.114;2022-10-04T18:15:26;23.45;;;13.55;;
48623;SDS011;34422;45.802;16.114;2022-10-04T18:23:24;22.80;;;13.18;;
48623;SDS011;34422;45.802;16.114;2022-10-04T18:25:53;24.50;;;13.60;;
48623;SDS011;34422;45.802;16.114;2022-10-04T18:28:25;21.83;;;13.07;;
48623;SDS011;34422;45.802;16.114;2022-10-04T18:30:53;29.20;;;13.52;;
48623;SDS011;34422;45.802;16.114;2022-10-04T18:33:29;22.08;;;13.05;;
48623;SDS011;34422;45.802;16.114;2022-10-04T18:36:22;19.55;;;12.15;;
48623;SDS011;34422;45.802;16.114;2022-10-04T18:41:42;24.65;;;13.40;;
48623;SDS011;34422;45.802;16.114;2022-10-04T18:44:20;26.92;;;13.82;;
48623;SDS011;34422;45.802;16.114;2022-10-04T18:46:54;21.83;;;13.10;;
48623;SDS011;34422;45.802;16.114;2022-10-04T18:49:23;47.03;;;13.40;;
48623;SDS011;34422;45.802;16.114;2022-10-04T18:57:20;18.60;;;11.68;;
48623;SDS011;34422;45.802;16.114;2022-10-04T19:00:21;20.60;;;12.45;;
48623;SDS011;34422;45.802;16.114;2022-10-04T19:03:30;18.67;;;11.55;;
48623;SDS011;34422;45.802;16.114;2022-10-04T19:11:51;16.83;;;10.40;;
48623;SDS011;34422;45.802;16.114;2022-10-04T19:20:11;18.10;;;10.32;;
48623;SDS011;34422;45.802;16.114;2022-10-04T19:28:03;20.27;;;11.40;;
48623;SDS011;34422;45.802;16.114;2022-10-04T19:37:06;20.17;;;10.57;;
48623;SDS011;34422;45.802;16.114;2022-10-04T19:45:15;20.73;;;10.68;;
48623;SDS011;34422;45.802;16.114;2022-10-04T19:47:57;19.73;;;11.15;;
48623;SDS011;34422;45.802;16.114;2022-10-04T19:56:00;20.15;;;10.95;;
48623;SDS011;34422;45.802;16.114;2022-10-04T20:01:08;16.40;;;9.48;;
48623;SDS011;34422;45.802;16.114;2022-10-04T20:03:46;17.77;;;9.00;;
48623;SDS011;34422;45.802;16.114;2022-10-04T20:06:33;15.02;;;7.88;;
48623;SDS011;34422;45.802;16.114;2022-10-04T20:09:24;16.15;;;8.88;;
48623;SDS011;34422;45.802;16.114;2022-10-04T20:11:57;17.67;;;8.25;;
48623;SDS011;34422;45.802;16.114;2022-10-04T20:35:03;14.65;;;7.90;;
48623;SDS011;34422;45.802;16.114;2022-10-04T20:40:41;19.30;;;9.10;;
48623;SDS011;34422;45.802;16.114;2022-10-04T20:48:13;19.58;;;8.75;;
48623;SDS011;34422;45.802;16.114;2022-10-04T20:50:44;14.00;;;7.13;;
48623;SDS011;34422;45.802;16.114;2022-10-04T20:53:22;14.63;;;8.52;;
48623;SDS011;34422;45.802;16.114;2022-10-04T20:55:51;16.65;;;8.65;;
48623;SDS011;34422;45.802;16.114;2022-10-04T20:58:34;15.25;;;8.55;;
48623;SDS011;34422;45.802;16.114;2022-10-04T21:04:45;16.45;;;7.82;;
48623;SDS011;34422;45.802;16.114;2022-10-04T21:07:02;30.13;;;12.93;;
48623;SDS011;34422;45.802;16.114;2022-10-04T21:09:32;40.90;;;16.52;;
48623;SDS011;34422;45.802;16.114;2022-10-04T21:12:01;41.95;;;17.38;;
48623;SDS011;34422;45.802;16.114;2022-10-04T21:14:33;34.33;;;14.82;;
48623;SDS011;34422;45.802;16.114;2022-10-04T21:19:56;26.45;;;12.77;;
48623;SDS011;34422;45.802;16.114;2022-10-04T21:27:38;20.17;;;9.43;;
48623;SDS011;34422;45.802;16.114;2022-10-04T21:30:13;18.27;;;9.68;;
48623;SDS011;34422;45.802;16.114;2022-10-04T21:32:42;15.00;;;9.10;;
48623;SDS011;34422;45.802;16.114;2022-10-04T21:35:09;13.85;;;7.95;;
48623;SDS011;34422;45.802;16.114;2022-10-04T21:37:37;17.67;;;8.20;;
48623;SDS011;34422;45.802;16.114;2022-10-04T21:40:04;18.13;;;8.98;;
48623;SDS011;34422;45.802;16.114;2022-10-04T21:42:32;11.93;;;7.18;;
48623;SDS011;34422;45.802;16.114;2022-10-04T21:44:59;14.60;;;7.35;;
48623;SDS011;34422;45.802;16.114;2022-10-04T21:47:26;15.60;;;7.55;;
48623;SDS011;34422;45.802;16.114;2022-10-04T21:49:52;13.02;;;7.22;;
48623;SDS011;34422;45.802;16.114;2022-10-04T21:52:20;15.20;;;6.30;;
48623;SDS011;34422;45.802;16.114;2022-10-04T21:54:47;13.32;;;6.15;;
48623;SDS011;34422;45.802;16.114;2022-10-04T21:57:14;10.80;;;5.85;;
48623;SDS011;34422;45.802;16.114;2022-10-04T21:59:41;10.75;;;5.35;;
48623;SDS011;34422;45.802;16.114;2022-10-04T22:02:08;11.88;;;5.88;;
48623;SDS011;34422;45.802;16.114;2022-10-04T22:04:35;8.60;;;5.30;;
48623;SDS011;34422;45.802;16.114;2022-10-04T22:07:03;10.45;;;5.68;;
48623;SDS011;34422;45.802;16.114;2022-10-04T22:09:30;19.20;;;6.00;;
48623;SDS011;34422;45.802;16.114;2022-10-04T22:11:58;12.18;;;6.25;;
48623;SDS011;34422;45.802;16.114;2022-10-04T22:14:25;11.10;;;6.10;;
48623;SDS011;34422;45.802;16.114;2022-10-04T22:16:52;11.32;;;6.22;;
48623;SDS011;34422;45.802;16.114;2022-10-04T22:19:20;13.93;;;6.50;;
48623;SDS011;34422;45.802;16.114;2022-10-04T22:21:47;14.93;;;5.95;;
48623;SDS011;34422;45.802;16.114;2022-10-04T22:24:15;9.52;;;5.57;;
48623;SDS011;34422;45.802;16.114;2022-10-04T22:26:44;10.70;;;5.55;;
48623;SDS011;34422;45.802;16.114;2022-10-04T22:29:12;12.55;;;6.35;;
48623;SDS011;34422;45.802;16.114;2022-10-04T22:31:40;13.45;;;5.88;;
48623;SDS011;34422;45.802;16.114;2022-10-04T22:34:18;10.73;;;6.03;;
48623;SDS011;34422;45.802;16.114;2022-10-04T22:36:47;9.88;;;5.55;;
48623;SDS011;34422;45.802;16.114;2022-10-04T22:39:15;9.95;;;5.10;;
48623;SDS011;34422;45.802;16.114;2022-10-04T22:41:45;10.38;;;5.53;;
48623;SDS011;34422;45.802;16.114;2022-10-04T22:44:20;12.75;;;6.13;;
48623;SDS011;34422;45.802;16.114;2022-10-04T22:46:51;9.48;;;4.90;;
48623;SDS011;34422;45.802;16.114;2022-10-04T22:49:24;10.32;;;6.43;;
48623;SDS011;34422;45.802;16.114;2022-10-04T22:51:53;13.90;;;6.95;;
48623;SDS011;34422;45.802;16.114;2022-10-04T22:54:24;15.77;;;8.32;;
48623;SDS011;34422;45.802;16.114;2022-10-04T22:56:52;17.52;;;10.32;;
48623;SDS011;34422;45.802;16.114;2022-10-04T22:59:24;13.57;;;8.80;;
48623;SDS011;34422;45.802;16.114;2022-10-04T23:02:04;24.30;;;9.25;;
48623;SDS011;34422;45.802;16.114;2022-10-04T23:04:36;10.18;;;5.28;;
48623;SDS011;34422;45.802;16.114;2022-10-04T23:07:03;11.07;;;5.45;;
48623;SDS011;34422;45.802;16.114;2022-10-04T23:09:29;9.00;;;5.25;;
48623;SDS011;34422;45.802;16.114;2022-10-04T23:11:56;8.98;;;5.43;;
48623;SDS011;34422;45.802;16.114;2022-10-04T23:14:23;12.25;;;5.80;;
48623;SDS011;34422;45.802;16.114;2022-10-04T23:16:50;12.00;;;5.15;;
48623;SDS011;34422;45.802;16.114;2022-10-04T23:19:17;9.00;;;4.70;;
48623;SDS011;34422;45.802;16.114;2022-10-04T23:21:47;9.57;;;5.15;;
48623;SDS011;34422;45.802;16.114;2022-10-04T23:24:18;13.40;;;5.10;;
48623;SDS011;34422;45.802;16.114;2022-10-04T23:26:48;10.80;;;4.72;;
48623;SDS011;34422;45.802;16.114;2022-10-04T23:29:20;9.07;;;4.55;;
48623;SDS011;34422;45.802;16.114;2022-10-04T23:31:49;13.20;;;5.28;;
48623;SDS011;34422;45.802;16.114;2022-10-04T23:34:19;9.43;;;4.85;;
48623;SDS011;34422;45.802;16.114;2022-10-04T23:36:52;7.13;;;4.22;;
48623;SDS011;34422;45.802;16.114;2022-10-04T23:39:24;10.27;;;4.28;;
48623;SDS011;34422;45.802;16.114;2022-10-04T23:41:56;10.65;;;5.22;;
48623;SDS011;34422;45.802;16.114;2022-10-04T23:44:28;9.07;;;4.82;;
48623;SDS011;34422;45.802;16.114;2022-10-04T23:46:59;8.20;;;4.78;;
48623;SDS011;34422;45.802;16.114;2022-10-04T23:49:27;9.57;;;4.55;;
48623;SDS011;34422;45.802;16.114;2022-10-04T23:51:56;9.55;;;4.43;;
48623;SDS011;34422;45.802;16.114;2022-10-04T23:54:26;9.35;;;4.47;;
48623;SDS011;34422;45.802;16.114;2022-10-04T23:56:54;7.78;;;4.15;;
48623;SDS011;34422;45.802;16.114;2022-10-04T23:59:22;8.23;;;4.70;;
